sensor_id;sensor_type;location;lat;lon;timestamp;P1;P2;P0
62778;PMS7003;48821;48.796;2.396;2023-05-14T15:57:31;20.00;18.33;14.33
62778;PMS7003;48821;48.796;2.396;2023-05-14T16:04:34;22.33;19.33;14.00
62778;PMS7003;48821;48.796;2.396;2023-05-14T16:05:46;23.67;20.00;15.67
62778;PMS7003;48821;48.796;2.396;2023-05-14T16:07:02;21.67;19.00;14.00
62778;PMS7003;48821;48.796;2.396;2023-05-14T16:08:14;19.33;17.33;14.33
62778;PMS7003;48821;48.796;2.396;2023-05-14T16:09:27;22.63;18.75;14.75
62778;PMS7003;48821;48.796;2.396;2023-05-14T16:10:39;25.00;23.67;17.00
62778;PMS7003;48821;48.796;2.396;2023-05-14T16:11:52;24.57;22.14;14.71
62778;PMS7003;48821;48.796;2.396;2023-05-14T16:13:03;23.40;21.00;13.80
62778;PMS7003;48821;48.796;2.396;2023-05-14T16:14:16;21.57;20.00;16.00
62778;PMS7003;48821;48.796;2.396;2023-05-14T16:15:28;22.67;21.00;15.33
62778;PMS7003;48821;48.796;2.396;2023-05-14T16:16:40;22.00;22.00;14.80
62778;PMS7003;48821;48.796;2.396;2023-05-14T16:17:53;21.29;20.57;15.43
62778;PMS7003;48821;48.796;2.396;2023-05-14T16:19:04;20.20;19.00;14.60
62778;PMS7003;48821;48.796;2.396;2023-05-14T16:20:17;22.29;21.14;15.29
62778;PMS7003;48821;48.796;2.396;2023-05-14T16:21:29;25.40;20.20;14.40
62778;PMS7003;48821;48.796;2.396;2023-05-14T16:22:41;21.67;18.00;13.33
62778;PMS7003;48821;48.796;2.396;2023-05-14T16:23:53;20.40;19.20;15.60
62778;PMS7003;48821;48.796;2.396;2023-05-14T16:25:04;24.80;20.60;16.20
62778;PMS7003;48821;48.796;2.396;2023-05-14T16:26:17;23.71;23.43;16.57
62778;PMS7003;48821;48.796;2.396;2023-05-14T16:27:28;24.80;23.60;16.80
62778;PMS7003;48821;48.796;2.396;2023-05-14T16:28:42;24.13;20.50;15.25
62778;PMS7003;48821;48.796;2.396;2023-05-14T16:29:53;18.67;17.67;14.00
62778;PMS7003;48821;48.796;2.396;2023-05-14T16:31:06;24.29;22.14;15.43
62778;PMS7003;48821;48.796;2.396;2023-05-14T16:32:19;22.86;19.43;14.29
62778;PMS7003;48821;48.796;2.396;2023-05-14T16:33:31;21.33;20.33;14.67
62778;PMS7003;48821;48.796;2.396;2023-05-14T16:34:42;23.00;19.60;15.20
62778;PMS7003;48821;48.796;2.396;2023-05-14T16:35:59;23.00;21.00;16.00
62778;PMS7003;48821;48.796;2.396;2023-05-14T16:37:11;23.20;21.80;15.40
62778;PMS7003;48821;48.796;2.396;2023-05-14T16:38:23;21.33;18.00;12.33
62778;PMS7003;48821;48.796;2.396;2023-05-14T16:39:34;20.20;19.00;13.80
62778;PMS7003;48821;48.796;2.396;2023-05-14T16:40:48;24.88;21.38;14.75
62778;PMS7003;48821;48.796;2.396;2023-05-14T16:41:59;24.33;22.00;15.33
62778;PMS7003;48821;48.796;2.396;2023-05-14T16:43:10;24.33;22.67;14.67
62778;PMS7003;48821;48.796;2.396;2023-05-14T16:44:23;25.57;21.14;16.71
62778;PMS7003;48821;48.796;2.396;2023-05-14T16:45:34;23.40;21.80;15.60
62778;PMS7003;48821;48.796;2.396;2023-05-14T16:46:47;24.33;20.67;15.00
62778;PMS7003;48821;48.796;2.396;2023-05-14T16:47:58;23.00;20.33;15.33
62778;PMS7003;48821;48.796;2.396;2023-05-14T16:49:11;18.67;17.33;13.33
62778;PMS7003;48821;48.796;2.396;2023-05-14T16:50:22;22.40;18.20;14.40
62778;PMS7003;48821;48.796;2.396;2023-05-14T16:51:34;17.57;15.71;13.14
62778;PMS7003;48821;48.796;2.396;2023-05-14T16:52:46;20.50;19.00;15.00
62778;PMS7003;48821;48.796;2.396;2023-05-14T16:53:59;18.71;18.29;14.86
62778;PMS7003;48821;48.796;2.396;2023-05-14T16:55:10;19.00;18.40;13.40
62778;PMS7003;48821;48.796;2.396;2023-05-14T16:56:21;21.60;20.40;16.00
62778;PMS7003;48821;48.796;2.396;2023-05-14T16:57:32;12.75;11.25;5.25
62778;PMS7003;48821;48.796;2.396;2023-05-14T16:58:44;19.33;17.00;13.00
62778;PMS7003;48821;48.796;2.396;2023-05-14T16:59:55;20.60;18.00;15.00
62778;PMS7003;48821;48.796;2.396;2023-05-14T17:01:06;21.67;19.33;16.00
62778;PMS7003;48821;48.796;2.396;2023-05-14T17:02:18;17.33;17.33;13.00
62778;PMS7003;48821;48.796;2.396;2023-05-14T17:03:31;17.29;16.14;12.14
62778;PMS7003;48821;48.796;2.396;2023-05-14T17:04:43;23.80;19.00;14.60
62778;PMS7003;48821;48.796;2.396;2023-05-14T17:05:54;23.20;20.00;14.40
62778;PMS7003;48821;48.796;2.396;2023-05-14T17:07:06;21.60;19.60;14.20
62778;PMS7003;48821;48.796;2.396;2023-05-14T17:08:18;21.00;19.67;15.67
62778;PMS7003;48821;48.796;2.396;2023-05-14T17:09:30;20.20;17.00;13.40
62778;PMS7003;48821;48.796;2.396;2023-05-14T17:10:40;18.80;17.00;14.00
62778;PMS7003;48821;48.796;2.396;2023-05-14T17:11:52;19.00;17.40;13.80
62778;PMS7003;48821;48.796;2.396;2023-05-14T17:13:05;11.83;10.33;5.67
62778;PMS7003;48821;48.796;2.396;2023-05-14T17:14:16;18.00;16.00;12.40
62778;PMS7003;48821;48.796;2.396;2023-05-14T17:15:28;17.67;16.00;13.00
62778;PMS7003;48821;48.796;2.396;2023-05-14T17:16:39;20.00;17.20;13.20
62778;PMS7003;48821;48.796;2.396;2023-05-14T17:17:51;15.50;14.50;11.50
62778;PMS7003;48821;48.796;2.396;2023-05-14T17:19:03;18.40;15.00;10.60
62778;PMS7003;48821;48.796;2.396;2023-05-14T17:20:15;16.60;15.00;11.20
62778;PMS7003;48821;48.796;2.396;2023-05-14T17:21:27;17.00;15.80;14.40
62778;PMS7003;48821;48.796;2.396;2023-05-14T17:22:38;25.60;19.00;14.00
62778;PMS7003;48821;48.796;2.396;2023-05-14T17:23:49;18.33;16.67;13.00
62778;PMS7003;48821;48.796;2.396;2023-05-14T17:25:00;18.00;18.00;14.40
62778;PMS7003;48821;48.796;2.396;2023-05-14T17:26:11;16.40;16.40;13.20
62778;PMS7003;48821;48.796;2.396;2023-05-14T17:27:22;20.40;18.80;13.80
62778;PMS7003;48821;48.796;2.396;2023-05-14T17:28:33;20.67;17.33;12.67
62778;PMS7003;48821;48.796;2.396;2023-05-14T17:29:45;24.00;17.40;12.80
62778;PMS7003;48821;48.796;2.396;2023-05-14T17:30:57;18.60;15.20;11.60
62778;PMS7003;48821;48.796;2.396;2023-05-14T17:32:09;16.60;14.60;12.60
62778;PMS7003;48821;48.796;2.396;2023-05-14T17:33:20;18.00;16.60;13.00
62778;PMS7003;48821;48.796;2.396;2023-05-14T17:34:30;16.00;16.00;13.00
62778;PMS7003;48821;48.796;2.396;2023-05-14T17:35:42;24.60;20.20;13.80
62778;PMS7003;48821;48.796;2.396;2023-05-14T17:36:54;15.00;15.00;12.00
62778;PMS7003;48821;48.796;2.396;2023-05-14T17:38:06;20.00;19.00;14.00
62778;PMS7003;48821;48.796;2.396;2023-05-14T17:39:17;19.00;17.40;14.00
62778;PMS7003;48821;48.796;2.396;2023-05-14T17:40:30;20.43;18.29;15.00
62778;PMS7003;48821;48.796;2.396;2023-05-14T17:41:42;15.60;15.60;12.60
62778;PMS7003;48821;48.796;2.396;2023-05-14T17:42:53;20.20;19.00;14.40
62778;PMS7003;48821;48.796;2.396;2023-05-14T17:44:06;23.43;19.43;14.29
62778;PMS7003;48821;48.796;2.396;2023-05-14T17:45:18;22.00;18.00;14.00
62778;PMS7003;48821;48.796;2.396;2023-05-14T17:46:29;20.00;18.50;14.50
62778;PMS7003;48821;48.796;2.396;2023-05-14T17:47:42;18.29;16.57;13.57
62778;PMS7003;48821;48.796;2.396;2023-05-14T17:48:53;19.20;17.80;14.20
62778;PMS7003;48821;48.796;2.396;2023-05-14T17:50:04;18.50;18.00;15.00
62778;PMS7003;48821;48.796;2.396;2023-05-14T17:51:15;17.00;15.20;12.20
62778;PMS7003;48821;48.796;2.396;2023-05-14T17:52:26;20.60;18.20;14.80
62778;PMS7003;48821;48.796;2.396;2023-05-14T17:53:37;23.60;17.80;15.60
62778;PMS7003;48821;48.796;2.396;2023-05-14T17:54:49;19.20;17.80;15.00
62778;PMS7003;48821;48.796;2.396;2023-05-14T17:56:01;21.33;18.67;14.33
62778;PMS7003;48821;48.796;2.396;2023-05-14T17:57:13;21.57;19.71;13.86
62778;PMS7003;48821;48.796;2.396;2023-05-14T17:58:25;19.00;19.00;14.20
62778;PMS7003;48821;48.796;2.396;2023-05-14T17:59:37;18.00;17.67;13.67
62778;PMS7003;48821;48.796;2.396;2023-05-14T18:00:49;20.00;19.60;14.80
62778;PMS7003;48821;48.796;2.396;2023-05-14T18:02:00;18.00;17.00;12.80
62778;PMS7003;48821;48.796;2.396;2023-05-14T18:03:10;18.50;17.00;14.00
62778;PMS7003;48821;48.796;2.396;2023-05-14T18:04:23;16.67;16.00;12.33
62778;PMS7003;48821;48.796;2.396;2023-05-14T18:05:35;19.00;17.00;13.33
62778;PMS7003;48821;48.796;2.396;2023-05-14T18:06:47;21.40;18.20;14.40
62778;PMS7003;48821;48.796;2.396;2023-05-14T18:07:59;18.20;17.80;14.20
62778;PMS7003;48821;48.796;2.396;2023-05-14T18:09:10;16.00;15.67;12.67
62778;PMS7003;48821;48.796;2.396;2023-05-14T18:10:21;23.40;18.60;14.60
62778;PMS7003;48821;48.796;2.396;2023-05-14T18:11:33;17.60;16.20;13.80
62778;PMS7003;48821;48.796;2.396;2023-05-14T18:12:45;14.60;13.40;9.40
62778;PMS7003;48821;48.796;2.396;2023-05-14T18:13:57;20.60;17.60;14.40
62778;PMS7003;48821;48.796;2.396;2023-05-14T18:15:08;24.40;22.00;15.60
62778;PMS7003;48821;48.796;2.396;2023-05-14T18:16:18;16.50;16.50;13.00
62778;PMS7003;48821;48.796;2.396;2023-05-14T18:17:30;19.40;15.40;10.60
62778;PMS7003;48821;48.796;2.396;2023-05-14T18:18:41;19.60;17.00;13.40
62778;PMS7003;48821;48.796;2.396;2023-05-14T18:19:52;17.00;16.40;13.00
62778;PMS7003;48821;48.796;2.396;2023-05-14T18:21:03;22.40;16.60;13.60
62778;PMS7003;48821;48.796;2.396;2023-05-14T18:22:14;17.00;14.67;12.00
62778;PMS7003;48821;48.796;2.396;2023-05-14T18:23:26;17.60;16.40;13.60
62778;PMS7003;48821;48.796;2.396;2023-05-14T18:24:39;17.43;14.43;12.86
62778;PMS7003;48821;48.796;2.396;2023-05-14T18:25:50;24.00;21.60;15.80
62778;PMS7003;48821;48.796;2.396;2023-05-14T18:27:01;18.40;16.40;12.60
62778;PMS7003;48821;48.796;2.396;2023-05-14T18:28:12;19.20;17.40;14.00
62778;PMS7003;48821;48.796;2.396;2023-05-14T18:29:22;15.00;13.50;10.00
62778;PMS7003;48821;48.796;2.396;2023-05-14T18:30:33;19.80;19.00;14.20
62778;PMS7003;48821;48.796;2.396;2023-05-14T18:31:45;21.33;19.00;14.33
62778;PMS7003;48821;48.796;2.396;2023-05-14T18:32:58;20.86;18.43;14.71
62778;PMS7003;48821;48.796;2.396;2023-05-14T18:34:10;23.67;19.00;13.67
62778;PMS7003;48821;48.796;2.396;2023-05-14T18:35:21;24.33;20.33;15.33
62778;PMS7003;48821;48.796;2.396;2023-05-14T18:36:33;20.40;20.00;15.20
62778;PMS7003;48821;48.796;2.396;2023-05-14T18:37:45;19.60;19.60;15.40
62778;PMS7003;48821;48.796;2.396;2023-05-14T18:38:57;20.40;16.80;13.60
62778;PMS7003;48821;48.796;2.396;2023-05-14T18:40:10;16.71;16.00;12.29
62778;PMS7003;48821;48.796;2.396;2023-05-14T18:41:23;15.00;15.00;12.00
62778;PMS7003;48821;48.796;2.396;2023-05-14T18:42:34;21.60;20.20;13.80
62778;PMS7003;48821;48.796;2.396;2023-05-14T18:43:46;17.80;17.80;13.80
62778;PMS7003;48821;48.796;2.396;2023-05-14T18:44:58;17.80;17.80;13.80
62778;PMS7003;48821;48.796;2.396;2023-05-14T18:46:10;26.20;20.00;15.40
62778;PMS7003;48821;48.796;2.396;2023-05-14T18:47:22;19.00;17.33;14.00
62778;PMS7003;48821;48.796;2.396;2023-05-14T18:48:34;19.60;17.00;13.20
62778;PMS7003;48821;48.796;2.396;2023-05-14T18:49:46;18.80;17.80;14.20
62778;PMS7003;48821;48.796;2.396;2023-05-14T18:50:58;20.71;18.14;14.57
62778;PMS7003;48821;48.796;2.396;2023-05-14T18:52:11;17.00;15.33;13.00
62778;PMS7003;48821;48.796;2.396;2023-05-14T18:53:22;21.40;19.80;15.80
62778;PMS7003;48821;48.796;2.396;2023-05-14T18:54:35;22.71;19.57;14.57
62778;PMS7003;48821;48.796;2.396;2023-05-14T18:55:47;18.80;18.00;13.80
62778;PMS7003;48821;48.796;2.396;2023-05-14T18:56:59;19.60;18.80;15.20
62778;PMS7003;48821;48.796;2.396;2023-05-14T18:58:11;19.60;17.00;14.20
62778;PMS7003;48821;48.796;2.396;2023-05-14T18:59:24;19.33;17.67;14.00
62778;PMS7003;48821;48.796;2.396;2023-05-14T19:00:35;21.20;21.20;16.20
62778;PMS7003;48821;48.796;2.396;2023-05-14T19:01:46;24.00;19.40;15.20
62778;PMS7003;48821;48.796;2.396;2023-05-14T19:02:57;20.00;19.33;15.00
62778;PMS7003;48821;48.796;2.396;2023-05-14T19:04:10;20.14;19.00;14.71
62778;PMS7003;48821;48.796;2.396;2023-05-14T19:05:21;22.00;19.20;13.80
62778;PMS7003;48821;48.796;2.396;2023-05-14T19:06:32;20.00;19.40;13.60
62778;PMS7003;48821;48.796;2.396;2023-05-14T19:07:44;22.20;17.60;13.00
62778;PMS7003;48821;48.796;2.396;2023-05-14T19:08:58;19.33;17.00;14.00
62778;PMS7003;48821;48.796;2.396;2023-05-14T19:10:10;19.86;19.00;15.14
62778;PMS7003;48821;48.796;2.396;2023-05-14T19:11:23;20.14;20.14;13.29
62778;PMS7003;48821;48.796;2.396;2023-05-14T19:12:34;20.20;19.40;15.40
62778;PMS7003;48821;48.796;2.396;2023-05-14T19:13:46;18.60;18.60;14.20
62778;PMS7003;48821;48.796;2.396;2023-05-14T19:14:59;24.00;19.00;15.33
62778;PMS7003;48821;48.796;2.396;2023-05-14T19:16:12;21.86;20.43;15.57
62778;PMS7003;48821;48.796;2.396;2023-05-14T19:17:23;20.00;18.60;16.00
62778;PMS7003;48821;48.796;2.396;2023-05-14T19:18:35;23.33;21.67;14.00
62778;PMS7003;48821;48.796;2.396;2023-05-14T19:19:46;21.40;17.40;14.20
62778;PMS7003;48821;48.796;2.396;2023-05-14T19:20:57;16.20;15.60;12.40
62778;PMS7003;48821;48.796;2.396;2023-05-14T19:22:09;19.20;19.20;13.80
62778;PMS7003;48821;48.796;2.396;2023-05-14T19:23:22;19.86;19.00;13.57
62778;PMS7003;48821;48.796;2.396;2023-05-14T19:24:33;23.00;20.60;14.20
62778;PMS7003;48821;48.796;2.396;2023-05-14T19:25:43;21.00;18.50;14.50
62778;PMS7003;48821;48.796;2.396;2023-05-14T19:26:55;21.80;17.80;12.20
62778;PMS7003;48821;48.796;2.396;2023-05-14T19:28:06;23.20;21.80;16.40
62778;PMS7003;48821;48.796;2.396;2023-05-14T19:29:19;22.14;19.14;15.29
62778;PMS7003;48821;48.796;2.396;2023-05-14T19:30:31;22.80;21.80;16.00
62778;PMS7003;48821;48.796;2.396;2023-05-14T19:31:42;22.00;20.80;15.60
62778;PMS7003;48821;48.796;2.396;2023-05-14T19:32:53;20.60;18.20;14.40
62778;PMS7003;48821;48.796;2.396;2023-05-14T19:34:04;22.00;20.40;16.00
62778;PMS7003;48821;48.796;2.396;2023-05-14T19:35:16;18.00;17.00;13.33
62778;PMS7003;48821;48.796;2.396;2023-05-14T19:36:27;25.20;20.60;16.00
62778;PMS7003;48821;48.796;2.396;2023-05-14T19:37:38;22.00;19.67;15.67
62778;PMS7003;48821;48.796;2.396;2023-05-14T19:38:51;23.57;22.00;15.86
62778;PMS7003;48821;48.796;2.396;2023-05-14T19:40:02;24.20;21.60;16.00
62778;PMS7003;48821;48.796;2.396;2023-05-14T19:41:13;19.00;19.00;14.00
62778;PMS7003;48821;48.796;2.396;2023-05-14T19:42:25;25.00;21.33;16.00
62778;PMS7003;48821;48.796;2.396;2023-05-14T19:43:37;25.40;22.60;16.20
62778;PMS7003;48821;48.796;2.396;2023-05-14T19:44:48;22.00;18.20;15.00
62778;PMS7003;48821;48.796;2.396;2023-05-14T19:46:00;16.40;14.00;10.00
62778;PMS7003;48821;48.796;2.396;2023-05-14T19:47:12;22.20;18.80;15.60
62778;PMS7003;48821;48.796;2.396;2023-05-14T19:48:24;21.00;17.67;13.67
62778;PMS7003;48821;48.796;2.396;2023-05-14T19:49:36;18.60;17.60;14.40
62778;PMS7003;48821;48.796;2.396;2023-05-14T19:50:47;21.20;20.40;15.00
62778;PMS7003;48821;48.796;2.396;2023-05-14T19:51:58;21.00;20.00;15.67
62778;PMS7003;48821;48.796;2.396;2023-05-14T19:53:09;17.00;15.60;14.20
62778;PMS7003;48821;48.796;2.396;2023-05-14T19:54:21;24.33;22.00;16.00
62778;PMS7003;48821;48.796;2.396;2023-05-14T19:55:33;23.80;22.20;16.40
62778;PMS7003;48821;48.796;2.396;2023-05-14T19:56:45;20.60;19.40;14.20
62778;PMS7003;48821;48.796;2.396;2023-05-14T19:57:57;22.20;20.60;15.20
62778;PMS7003;48821;48.796;2.396;2023-05-14T19:59:09;23.00;21.14;16.14
62778;PMS7003;48821;48.796;2.396;2023-05-14T20:00:22;22.00;20.00;14.00
62778;PMS7003;48821;48.796;2.396;2023-05-14T20:01:33;17.00;16.60;13.00
62778;PMS7003;48821;48.796;2.396;2023-05-14T20:02:44;21.80;19.80;12.60
62778;PMS7003;48821;48.796;2.396;2023-05-14T20:03:55;17.00;16.00;12.00
62778;PMS7003;48821;48.796;2.396;2023-05-14T20:05:06;23.40;22.00;15.20
62778;PMS7003;48821;48.796;2.396;2023-05-14T20:06:19;23.67;22.33;16.00
62778;PMS7003;48821;48.796;2.396;2023-05-14T20:07:30;23.20;18.20;14.40
62778;PMS7003;48821;48.796;2.396;2023-05-14T20:08:42;23.00;21.00;17.00
62778;PMS7003;48821;48.796;2.396;2023-05-14T20:09:55;16.33;16.00;12.00
62778;PMS7003;48821;48.796;2.396;2023-05-14T20:11:06;23.80;22.80;17.00
62778;PMS7003;48821;48.796;2.396;2023-05-14T20:12:17;24.00;21.67;16.33
62778;PMS7003;48821;48.796;2.396;2023-05-14T20:13:28;25.40;22.20;16.40
62778;PMS7003;48821;48.796;2.396;2023-05-14T20:14:41;20.33;20.00;15.67
62778;PMS7003;48821;48.796;2.396;2023-05-14T20:15:53;25.00;22.67;17.33
62778;PMS7003;48821;48.796;2.396;2023-05-14T20:17:04;23.80;21.00;15.80
62778;PMS7003;48821;48.796;2.396;2023-05-14T20:18:16;22.67;20.33;15.67
62778;PMS7003;48821;48.796;2.396;2023-05-14T20:19:29;22.14;19.14;15.43
62778;PMS7003;48821;48.796;2.396;2023-05-14T20:20:41;22.67;21.67;16.00
62778;PMS7003;48821;48.796;2.396;2023-05-14T20:21:54;25.43;22.43;16.14
62778;PMS7003;48821;48.796;2.396;2023-05-14T20:23:06;21.00;20.00;15.00
62778;PMS7003;48821;48.796;2.396;2023-05-14T20:24:17;22.67;20.33;15.33
62778;PMS7003;48821;48.796;2.396;2023-05-14T20:25:28;23.60;22.20;17.20
62778;PMS7003;48821;48.796;2.396;2023-05-14T20:26:39;25.00;22.67;16.00
62778;PMS7003;48821;48.796;2.396;2023-05-14T20:27:50;25.00;23.80;16.00
62778;PMS7003;48821;48.796;2.396;2023-05-14T20:29:02;22.67;21.67;17.00
62778;PMS7003;48821;48.796;2.396;2023-05-14T20:30:13;23.20;21.80;16.00
62778;PMS7003;48821;48.796;2.396;2023-05-14T20:31:24;22.60;20.60;15.60
62778;PMS7003;48821;48.796;2.396;2023-05-14T20:32:36;26.60;21.60;15.40
62778;PMS7003;48821;48.796;2.396;2023-05-14T20:33:47;21.40;17.40;12.40
62778;PMS7003;48821;48.796;2.396;2023-05-14T20:34:59;20.67;20.67;16.33
62778;PMS7003;48821;48.796;2.396;2023-05-14T20:36:12;20.00;20.00;14.67
62778;PMS7003;48821;48.796;2.396;2023-05-14T20:37:24;26.57;22.43;15.86
62778;PMS7003;48821;48.796;2.396;2023-05-14T20:38:38;28.50;24.63;17.00
62778;PMS7003;48821;48.796;2.396;2023-05-14T20:39:52;6.33;5.33;2.67
62778;PMS7003;48821;48.796;2.396;2023-05-14T20:41:03;20.67;20.00;14.00
62778;PMS7003;48821;48.796;2.396;2023-05-14T20:42:16;25.71;23.14;17.00
62778;PMS7003;48821;48.796;2.396;2023-05-14T20:43:27;23.40;20.80;15.20
62778;PMS7003;48821;48.796;2.396;2023-05-14T20:44:38;23.00;22.00;16.33
62778;PMS7003;48821;48.796;2.396;2023-05-14T20:45:50;22.40;20.20;14.40
62778;PMS7003;48821;48.796;2.396;2023-05-14T20:47:02;24.40;22.80;16.40
62778;PMS7003;48821;48.796;2.396;2023-05-14T20:48:14;22.20;21.40;16.20
62778;PMS7003;48821;48.796;2.396;2023-05-14T20:49:26;27.00;23.80;16.00
62778;PMS7003;48821;48.796;2.396;2023-05-14T20:50:37;21.80;17.40;12.80
62778;PMS7003;48821;48.796;2.396;2023-05-14T20:51:50;23.86;21.86;16.14
62778;PMS7003;48821;48.796;2.396;2023-05-14T20:53:02;23.00;22.60;18.00
62778;PMS7003;48821;48.796;2.396;2023-05-14T20:54:14;26.00;23.00;15.67
62778;PMS7003;48821;48.796;2.396;2023-05-14T20:55:26;23.40;21.80;16.00
62778;PMS7003;48821;48.796;2.396;2023-05-14T20:56:37;24.00;22.40;18.40
62778;PMS7003;48821;48.796;2.396;2023-05-14T20:57:49;23.40;21.80;14.00
62778;PMS7003;48821;48.796;2.396;2023-05-14T20:59:00;23.80;21.80;16.20
62778;PMS7003;48821;48.796;2.396;2023-05-14T21:00:12;20.20;20.20;14.80
62778;PMS7003;48821;48.796;2.396;2023-05-14T21:01:24;23.67;22.00;17.33
62778;PMS7003;48821;48.796;2.396;2023-05-14T21:02:36;23.14;22.14;18.29
62778;PMS7003;48821;48.796;2.396;2023-05-14T21:03:48;20.60;20.60;15.20
62778;PMS7003;48821;48.796;2.396;2023-05-14T21:05:02;28.50;25.38;20.50
62778;PMS7003;48821;48.796;2.396;2023-05-14T21:06:13;20.67;19.67;14.67
62778;PMS7003;48821;48.796;2.396;2023-05-14T21:07:27;26.38;25.88;19.38
62778;PMS7003;48821;48.796;2.396;2023-05-14T21:08:38;28.33;24.00;18.00
62778;PMS7003;48821;48.796;2.396;2023-05-14T21:09:50;26.67;24.33;17.67
62778;PMS7003;48821;48.796;2.396;2023-05-14T21:11:02;27.33;27.33;17.67
62778;PMS7003;48821;48.796;2.396;2023-05-14T21:12:17;30.63;25.13;17.75
62778;PMS7003;48821;48.796;2.396;2023-05-14T21:13:28;24.33;21.00;16.33
62778;PMS7003;48821;48.796;2.396;2023-05-14T21:14:40;20.60;18.20;10.40
62778;PMS7003;48821;48.796;2.396;2023-05-14T21:15:52;28.00;24.00;15.33
62778;PMS7003;48821;48.796;2.396;2023-05-14T21:17:05;25.13;23.75;18.88
62778;PMS7003;48821;48.796;2.396;2023-05-14T21:18:16;27.00;21.50;18.00
62778;PMS7003;48821;48.796;2.396;2023-05-14T21:19:27;25.60;22.00;17.20
62778;PMS7003;48821;48.796;2.396;2023-05-14T21:20:38;29.80;25.00;18.20
62778;PMS7003;48821;48.796;2.396;2023-05-14T21:21:50;27.67;24.00;18.67
62778;PMS7003;48821;48.796;2.396;2023-05-14T21:23:02;29.20;26.80;20.20
62778;PMS7003;48821;48.796;2.396;2023-05-14T21:24:16;29.63;25.88;18.13
62778;PMS7003;48821;48.796;2.396;2023-05-14T21:25:27;30.00;25.00;18.67
62778;PMS7003;48821;48.796;2.396;2023-05-14T21:26:40;27.75;23.75;18.38
62778;PMS7003;48821;48.796;2.396;2023-05-14T21:27:52;29.67;27.33;19.67
62778;PMS7003;48821;48.796;2.396;2023-05-14T21:29:04;26.67;23.33;15.33
62778;PMS7003;48821;48.796;2.396;2023-05-14T21:30:17;26.14;25.86;18.86
62778;PMS7003;48821;48.796;2.396;2023-05-14T21:31:28;29.20;28.00;20.40
62778;PMS7003;48821;48.796;2.396;2023-05-14T21:32:40;27.40;26.60;19.40
62778;PMS7003;48821;48.796;2.396;2023-05-14T21:33:52;30.40;26.40;18.80
62778;PMS7003;48821;48.796;2.396;2023-05-14T21:35:04;26.80;24.00;18.40
62778;PMS7003;48821;48.796;2.396;2023-05-14T21:36:15;27.67;27.67;19.00
62778;PMS7003;48821;48.796;2.396;2023-05-14T21:37:28;26.00;22.29;17.86
62778;PMS7003;48821;48.796;2.396;2023-05-14T21:38:40;29.00;26.80;19.00
62778;PMS7003;48821;48.796;2.396;2023-05-14T21:39:54;27.63;24.63;18.88
62778;PMS7003;48821;48.796;2.396;2023-05-14T21:41:04;26.50;25.50;18.00
62778;PMS7003;48821;48.796;2.396;2023-05-14T21:42:16;30.00;28.20;20.60
62778;PMS7003;48821;48.796;2.396;2023-05-14T21:43:29;27.50;24.50;18.00
62778;PMS7003;48821;48.796;2.396;2023-05-14T21:44:43;30.50;26.38;19.50
62778;PMS7003;48821;48.796;2.396;2023-05-14T21:45:54;29.67;27.67;20.33
62778;PMS7003;48821;48.796;2.396;2023-05-14T21:47:08;29.88;26.63;18.88
62778;PMS7003;48821;48.796;2.396;2023-05-14T21:48:19;25.67;24.67;19.33
62778;PMS7003;48821;48.796;2.396;2023-05-14T21:49:30;28.50;26.00;19.00
62778;PMS7003;48821;48.796;2.396;2023-05-14T21:50:41;28.20;25.20;17.60
62778;PMS7003;48821;48.796;2.396;2023-05-14T21:51:53;24.60;24.00;18.20
62778;PMS7003;48821;48.796;2.396;2023-05-14T21:53:04;29.00;27.00;20.00
62778;PMS7003;48821;48.796;2.396;2023-05-14T21:54:17;27.60;26.40;18.20
62778;PMS7003;48821;48.796;2.396;2023-05-14T21:55:28;28.60;26.00;20.60
62778;PMS7003;48821;48.796;2.396;2023-05-14T21:56:42;31.25;27.13;19.63
62778;PMS7003;48821;48.796;2.396;2023-05-14T21:57:53;25.00;22.67;18.00
62778;PMS7003;48821;48.796;2.396;2023-05-14T21:59:05;30.80;25.60;18.20
62778;PMS7003;48821;48.796;2.396;2023-05-14T22:00:16;31.40;30.20;19.80
62778;PMS7003;48821;48.796;2.396;2023-05-14T22:01:33;29.67;25.33;18.00
62778;PMS7003;48821;48.796;2.396;2023-05-14T22:02:45;23.80;23.80;20.00
62778;PMS7003;48821;48.796;2.396;2023-05-14T22:03:58;28.13;26.50;19.63
62778;PMS7003;48821;48.796;2.396;2023-05-14T22:05:10;23.00;22.33;17.00
62778;PMS7003;48821;48.796;2.396;2023-05-14T22:06:23;32.00;28.00;20.00
62778;PMS7003;48821;48.796;2.396;2023-05-14T22:07:34;27.50;25.50;18.00
62778;PMS7003;48821;48.796;2.396;2023-05-14T22:08:47;34.25;26.75;20.13
62778;PMS7003;48821;48.796;2.396;2023-05-14T22:09:59;30.20;27.20;19.00
62778;PMS7003;48821;48.796;2.396;2023-05-14T22:11:11;31.40;29.00;20.00
62778;PMS7003;48821;48.796;2.396;2023-05-14T22:12:23;33.80;29.80;21.20
62778;PMS7003;48821;48.796;2.396;2023-05-14T22:13:37;32.00;28.13;20.63
62778;PMS7003;48821;48.796;2.396;2023-05-14T22:14:49;33.00;28.50;21.00
62778;PMS7003;48821;48.796;2.396;2023-05-14T22:16:03;36.00;30.63;20.88
62778;PMS7003;48821;48.796;2.396;2023-05-14T22:17:14;34.50;27.50;20.00
62778;PMS7003;48821;48.796;2.396;2023-05-14T22:18:26;30.40;27.60;18.80
62778;PMS7003;48821;48.796;2.396;2023-05-14T22:19:38;28.40;25.80;19.60
62778;PMS7003;48821;48.796;2.396;2023-05-14T22:20:48;25.40;22.40;18.20
62778;PMS7003;48821;48.796;2.396;2023-05-14T22:21:59;31.00;28.00;20.00
62778;PMS7003;48821;48.796;2.396;2023-05-14T22:23:11;26.00;24.80;20.80
62778;PMS7003;48821;48.796;2.396;2023-05-14T22:24:23;30.80;26.60;20.80
62778;PMS7003;48821;48.796;2.396;2023-05-14T22:25:37;31.38;26.00;18.88
62778;PMS7003;48821;48.796;2.396;2023-05-14T22:26:47;36.00;29.00;21.00
62778;PMS7003;48821;48.796;2.396;2023-05-14T22:27:59;34.20;30.40;20.20
62778;PMS7003;48821;48.796;2.396;2023-05-14T22:29:12;27.50;25.50;19.75
62778;PMS7003;48821;48.796;2.396;2023-05-14T22:30:23;36.00;30.50;20.00
62778;PMS7003;48821;48.796;2.396;2023-05-14T22:31:35;31.40;27.00;18.40
62778;PMS7003;48821;48.796;2.396;2023-05-14T22:32:47;40.00;30.40;20.80
62778;PMS7003;48821;48.796;2.396;2023-05-14T22:33:59;30.40;28.80;19.20
62778;PMS7003;48821;48.796;2.396;2023-05-14T22:35:11;34.40;29.80;21.80
62778;PMS7003;48821;48.796;2.396;2023-05-14T22:36:22;27.00;25.00;19.00
62778;PMS7003;48821;48.796;2.396;2023-05-14T22:37:33;35.60;29.20;20.40
62778;PMS7003;48821;48.796;2.396;2023-05-14T22:38:45;33.40;29.40;20.00
62778;PMS7003;48821;48.796;2.396;2023-05-14T22:39:57;40.60;34.20;23.00
62778;PMS7003;48821;48.796;2.396;2023-05-14T22:41:09;31.20;28.60;20.80
62778;PMS7003;48821;48.796;2.396;2023-05-14T22:42:21;32.33;29.33;20.67
62778;PMS7003;48821;48.796;2.396;2023-05-14T22:43:32;34.80;31.60;20.60
62778;PMS7003;48821;48.796;2.396;2023-05-14T22:44:43;31.40;27.60;19.80
62778;PMS7003;48821;48.796;2.396;2023-05-14T22:45:54;27.80;23.80;18.20